Terminal Aerodrome Forecast
Issued by NWS

Home | Current Version | Previous Version | Graphics & Text | Print | Product List | Glossary On
Versions: 1 2 3 4 5 6 7 8 9 10 11 12 13 14 15 16 17 18 19 20
261
FTUS43 KGRB 192055 AAA
TAFAUW
TAF AMD
KAUW 192055Z 1921/2018 05011G17KT 5SM -FZDZSN BR OVC010 PROB30
      2010/2011 2SM -FZDZ OVC003
     FM201100 06005KT 3SM -FZDZ OVC008
     FM201300 07005KT 1 1/2SM -FZRA OVC003
     FM201700 33004KT 2SM -FZRA OVC003=

USA.gov is the U.S. government's official web portal to all federal, state and local government web resources and services.